sensor_id;sensor_type;location;lat;lon;timestamp;P1;durP1;ratioP1;P2;durP2;ratioP2
3971;SDS011;2000;47.572;14.202;2024-01-15T00:00:58;5.67;;;2.93;;
3971;SDS011;2000;47.572;14.202;2024-01-15T00:03:25;5.80;;;3.27;;
3971;SDS011;2000;47.572;14.202;2024-01-15T00:05:52;11.83;;;2.87;;
3971;SDS011;2000;47.572;14.202;2024-01-15T00:08:19;7.10;;;3.17;;
3971;SDS011;2000;47.572;14.202;2024-01-15T00:10:46;7.50;;;3.07;;
3971;SDS011;2000;47.572;14.202;2024-01-15T00:13:13;7.00;;;3.30;;
3971;SDS011;2000;47.572;14.202;2024-01-15T00:15:40;10.80;;;3.13;;
3971;SDS011;2000;47.572;14.202;2024-01-15T00:18:07;5.33;;;3.23;;
3971;SDS011;2000;47.572;14.202;2024-01-15T00:20:35;24.47;;;3.93;;
3971;SDS011;2000;47.572;14.202;2024-01-15T00:23:02;3.33;;;1.90;;
3971;SDS011;2000;47.572;14.202;2024-01-15T00:25:29;3.23;;;1.80;;
3971;SDS011;2000;47.572;14.202;2024-01-15T00:27:56;9.20;;;2.30;;
3971;SDS011;2000;47.572;14.202;2024-01-15T00:30:23;6.53;;;2.20;;
3971;SDS011;2000;47.572;14.202;2024-01-15T00:32:50;5.73;;;2.90;;
3971;SDS011;2000;47.572;14.202;2024-01-15T00:35:17;7.80;;;3.17;;
3971;SDS011;2000;47.572;14.202;2024-01-15T00:37:44;6.27;;;3.37;;
3971;SDS011;2000;47.572;14.202;2024-01-15T00:40:11;8.97;;;4.03;;
3971;SDS011;2000;47.572;14.202;2024-01-15T00:42:38;10.73;;;5.33;;
3971;SDS011;2000;47.572;14.202;2024-01-15T00:45:05;13.70;;;5.77;;
3971;SDS011;2000;47.572;14.202;2024-01-15T00:47:34;10.13;;;5.00;;
3971;SDS011;2000;47.572;14.202;2024-01-15T00:50:01;10.30;;;4.90;;
3971;SDS011;2000;47.572;14.202;2024-01-15T00:52:28;10.33;;;4.50;;
3971;SDS011;2000;47.572;14.202;2024-01-15T00:54:55;4.17;;;3.07;;
3971;SDS011;2000;47.572;14.202;2024-01-15T00:57:22;4.97;;;2.73;;
3971;SDS011;2000;47.572;14.202;2024-01-15T00:59:49;15.17;;;5.20;;
3971;SDS011;2000;47.572;14.202;2024-01-15T01:02:16;12.57;;;4.23;;
3971;SDS011;2000;47.572;14.202;2024-01-15T01:04:43;10.93;;;4.80;;
3971;SDS011;2000;47.572;14.202;2024-01-15T01:07:10;16.07;;;5.30;;
3971;SDS011;2000;47.572;14.202;2024-01-15T01:09:37;8.13;;;4.83;;
3971;SDS011;2000;47.572;14.202;2024-01-15T01:12:04;7.40;;;4.77;;
3971;SDS011;2000;47.572;14.202;2024-01-15T01:14:32;9.60;;;4.20;;
3971;SDS011;2000;47.572;14.202;2024-01-15T01:16:59;8.73;;;4.70;;
3971;SDS011;2000;47.572;14.202;2024-01-15T01:19:26;6.50;;;3.30;;
3971;SDS011;2000;47.572;14.202;2024-01-15T01:21:53;9.13;;;3.67;;
3971;SDS011;2000;47.572;14.202;2024-01-15T01:24:20;12.33;;;5.30;;
3971;SDS011;2000;47.572;14.202;2024-01-15T01:26:47;10.67;;;4.30;;
3971;SDS011;2000;47.572;14.202;2024-01-15T01:29:14;10.30;;;4.60;;
3971;SDS011;2000;47.572;14.202;2024-01-15T01:31:44;13.00;;;4.90;;
3971;SDS011;2000;47.572;14.202;2024-01-15T01:34:15;15.43;;;4.80;;
3971;SDS011;2000;47.572;14.202;2024-01-15T01:36:43;17.50;;;5.93;;
3971;SDS011;2000;47.572;14.202;2024-01-15T01:39:10;17.77;;;6.87;;
3971;SDS011;2000;47.572;14.202;2024-01-15T01:41:38;13.30;;;6.23;;
3971;SDS011;2000;47.572;14.202;2024-01-15T01:44:05;15.10;;;5.47;;
3971;SDS011;2000;47.572;14.202;2024-01-15T01:46:33;13.03;;;5.30;;
3971;SDS011;2000;47.572;14.202;2024-01-15T01:49:01;9.80;;;5.47;;
3971;SDS011;2000;47.572;14.202;2024-01-15T01:51:33;10.40;;;5.80;;
3971;SDS011;2000;47.572;14.202;2024-01-15T01:54:00;23.17;;;5.63;;
3971;SDS011;2000;47.572;14.202;2024-01-15T01:56:28;11.30;;;5.13;;
3971;SDS011;2000;47.572;14.202;2024-01-15T01:58:55;10.70;;;5.00;;
3971;SDS011;2000;47.572;14.202;2024-01-15T02:01:22;13.23;;;5.50;;
3971;SDS011;2000;47.572;14.202;2024-01-15T02:03:49;12.93;;;5.23;;
3971;SDS011;2000;47.572;14.202;2024-01-15T02:06:16;9.90;;;4.80;;
3971;SDS011;2000;47.572;14.202;2024-01-15T02:08:43;9.20;;;5.30;;
3971;SDS011;2000;47.572;14.202;2024-01-15T02:11:11;10.17;;;5.57;;
3971;SDS011;2000;47.572;14.202;2024-01-15T02:13:38;12.57;;;6.50;;
3971;SDS011;2000;47.572;14.202;2024-01-15T02:16:05;9.67;;;5.20;;
3971;SDS011;2000;47.572;14.202;2024-01-15T02:18:40;17.40;;;6.90;;
3971;SDS011;2000;47.572;14.202;2024-01-15T02:21:10;16.13;;;5.83;;
3971;SDS011;2000;47.572;14.202;2024-01-15T02:23:38;12.20;;;5.30;;
3971;SDS011;2000;47.572;14.202;2024-01-15T02:26:05;9.23;;;5.20;;
3971;SDS011;2000;47.572;14.202;2024-01-15T02:28:34;13.93;;;5.30;;
3971;SDS011;2000;47.572;14.202;2024-01-15T02:31:01;13.53;;;5.30;;
3971;SDS011;2000;47.572;14.202;2024-01-15T02:33:28;14.83;;;5.00;;
3971;SDS011;2000;47.572;14.202;2024-01-15T02:35:55;15.63;;;5.47;;
3971;SDS011;2000;47.572;14.202;2024-01-15T02:38:22;9.83;;;4.63;;
3971;SDS011;2000;47.572;14.202;2024-01-15T02:40:49;11.70;;;4.63;;
3971;SDS011;2000;47.572;14.202;2024-01-15T02:43:17;17.20;;;6.97;;
3971;SDS011;2000;47.572;14.202;2024-01-15T02:45:45;17.90;;;4.93;;
3971;SDS011;2000;47.572;14.202;2024-01-15T02:48:13;8.70;;;4.90;;
3971;SDS011;2000;47.572;14.202;2024-01-15T02:50:41;10.07;;;4.60;;
3971;SDS011;2000;47.572;14.202;2024-01-15T02:53:08;8.10;;;5.10;;
3971;SDS011;2000;47.572;14.202;2024-01-15T02:55:35;7.40;;;4.50;;
3971;SDS011;2000;47.572;14.202;2024-01-15T02:58:02;12.43;;;5.53;;
3971;SDS011;2000;47.572;14.202;2024-01-15T03:00:30;10.40;;;4.90;;
3971;SDS011;2000;47.572;14.202;2024-01-15T03:02:57;10.13;;;4.33;;
3971;SDS011;2000;47.572;14.202;2024-01-15T03:05:24;11.67;;;4.40;;
3971;SDS011;2000;47.572;14.202;2024-01-15T03:07:51;7.80;;;4.23;;
3971;SDS011;2000;47.572;14.202;2024-01-15T03:10:18;10.13;;;5.60;;
3971;SDS011;2000;47.572;14.202;2024-01-15T03:12:45;7.73;;;4.57;;
3971;SDS011;2000;47.572;14.202;2024-01-15T03:15:12;7.90;;;5.10;;
3971;SDS011;2000;47.572;14.202;2024-01-15T03:17:40;8.97;;;4.90;;
3971;SDS011;2000;47.572;14.202;2024-01-15T03:20:08;15.20;;;5.17;;
3971;SDS011;2000;47.572;14.202;2024-01-15T03:22:35;12.67;;;5.50;;
3971;SDS011;2000;47.572;14.202;2024-01-15T03:25:03;11.87;;;5.13;;
3971;SDS011;2000;47.572;14.202;2024-01-15T03:27:30;10.53;;;4.50;;
3971;SDS011;2000;47.572;14.202;2024-01-15T03:29:57;9.13;;;4.10;;
3971;SDS011;2000;47.572;14.202;2024-01-15T03:32:24;10.23;;;4.53;;
3971;SDS011;2000;47.572;14.202;2024-01-15T03:34:51;12.80;;;5.03;;
3971;SDS011;2000;47.572;14.202;2024-01-15T03:37:19;9.77;;;5.50;;
3971;SDS011;2000;47.572;14.202;2024-01-15T03:39:46;9.40;;;4.63;;
3971;SDS011;2000;47.572;14.202;2024-01-15T03:42:13;6.27;;;5.10;;
3971;SDS011;2000;47.572;14.202;2024-01-15T03:44:41;6.80;;;4.40;;
3971;SDS011;2000;47.572;14.202;2024-01-15T03:47:08;7.97;;;4.30;;
3971;SDS011;2000;47.572;14.202;2024-01-15T03:49:35;6.37;;;4.57;;
3971;SDS011;2000;47.572;14.202;2024-01-15T03:52:02;7.53;;;3.87;;
3971;SDS011;2000;47.572;14.202;2024-01-15T03:54:29;8.60;;;4.07;;
3971;SDS011;2000;47.572;14.202;2024-01-15T03:56:56;12.47;;;3.87;;
3971;SDS011;2000;47.572;14.202;2024-01-15T03:59:23;7.20;;;3.53;;
3971;SDS011;2000;47.572;14.202;2024-01-15T04:01:50;7.73;;;3.50;;
3971;SDS011;2000;47.572;14.202;2024-01-15T04:04:20;13.83;;;4.63;;
3971;SDS011;2000;47.572;14.202;2024-01-15T04:06:47;8.30;;;3.87;;
3971;SDS011;2000;47.572;14.202;2024-01-15T04:09:14;12.50;;;4.10;;
3971;SDS011;2000;47.572;14.202;2024-01-15T04:11:41;9.37;;;3.87;;
3971;SDS011;2000;47.572;14.202;2024-01-15T04:14:08;7.90;;;4.43;;
3971;SDS011;2000;47.572;14.202;2024-01-15T04:16:37;10.63;;;4.30;;
3971;SDS011;2000;47.572;14.202;2024-01-15T04:19:04;9.30;;;4.80;;
3971;SDS011;2000;47.572;14.202;2024-01-15T04:21:31;6.57;;;3.87;;
3971;SDS011;2000;47.572;14.202;2024-01-15T04:23:58;18.10;;;5.83;;
3971;SDS011;2000;47.572;14.202;2024-01-15T04:26:25;9.60;;;3.90;;
3971;SDS011;2000;47.572;14.202;2024-01-15T04:28:52;19.93;;;5.17;;
3971;SDS011;2000;47.572;14.202;2024-01-15T04:31:23;13.83;;;5.47;;
3971;SDS011;2000;47.572;14.202;2024-01-15T04:33:51;14.47;;;5.37;;
3971;SDS011;2000;47.572;14.202;2024-01-15T04:36:18;10.07;;;6.03;;
3971;SDS011;2000;47.572;14.202;2024-01-15T04:38:45;24.50;;;4.90;;
3971;SDS011;2000;47.572;14.202;2024-01-15T04:41:13;9.73;;;4.83;;
3971;SDS011;2000;47.572;14.202;2024-01-15T04:43:40;17.27;;;5.43;;
3971;SDS011;2000;47.572;14.202;2024-01-15T04:46:07;11.67;;;5.47;;
3971;SDS011;2000;47.572;14.202;2024-01-15T04:48:34;14.00;;;5.57;;
3971;SDS011;2000;47.572;14.202;2024-01-15T04:51:04;12.50;;;6.10;;
3971;SDS011;2000;47.572;14.202;2024-01-15T04:53:32;12.60;;;4.60;;
3971;SDS011;2000;47.572;14.202;2024-01-15T04:56:01;16.17;;;5.30;;
3971;SDS011;2000;47.572;14.202;2024-01-15T04:58:28;8.67;;;4.67;;
3971;SDS011;2000;47.572;14.202;2024-01-15T05:00:56;11.60;;;5.20;;
3971;SDS011;2000;47.572;14.202;2024-01-15T05:03:23;11.73;;;5.30;;
3971;SDS011;2000;47.572;14.202;2024-01-15T05:05:50;11.37;;;5.87;;
3971;SDS011;2000;47.572;14.202;2024-01-15T05:08:17;11.67;;;4.80;;
3971;SDS011;2000;47.572;14.202;2024-01-15T05:10:44;18.37;;;10.17;;
3971;SDS011;2000;47.572;14.202;2024-01-15T05:13:11;18.10;;;7.47;;
3971;SDS011;2000;47.572;14.202;2024-01-15T05:15:38;15.20;;;6.13;;
3971;SDS011;2000;47.572;14.202;2024-01-15T05:18:06;9.77;;;5.90;;
3971;SDS011;2000;47.572;14.202;2024-01-15T05:20:33;11.37;;;5.27;;
3971;SDS011;2000;47.572;14.202;2024-01-15T05:23:01;17.53;;;9.00;;
3971;SDS011;2000;47.572;14.202;2024-01-15T05:25:28;23.27;;;8.67;;
3971;SDS011;2000;47.572;14.202;2024-01-15T05:27:55;14.57;;;7.07;;
3971;SDS011;2000;47.572;14.202;2024-01-15T05:30:22;15.63;;;7.13;;
3971;SDS011;2000;47.572;14.202;2024-01-15T05:32:49;22.23;;;7.30;;
3971;SDS011;2000;47.572;14.202;2024-01-15T05:35:16;11.30;;;5.83;;
3971;SDS011;2000;47.572;14.202;2024-01-15T05:37:44;13.17;;;5.83;;
3971;SDS011;2000;47.572;14.202;2024-01-15T05:40:12;9.80;;;5.53;;
3971;SDS011;2000;47.572;14.202;2024-01-15T05:42:42;13.93;;;6.33;;
3971;SDS011;2000;47.572;14.202;2024-01-15T05:45:09;12.87;;;7.77;;
3971;SDS011;2000;47.572;14.202;2024-01-15T05:47:36;11.33;;;5.63;;
3971;SDS011;2000;47.572;14.202;2024-01-15T05:50:03;12.80;;;6.00;;
3971;SDS011;2000;47.572;14.202;2024-01-15T05:52:31;9.93;;;4.47;;
3971;SDS011;2000;47.572;14.202;2024-01-15T05:54:58;10.63;;;5.40;;
3971;SDS011;2000;47.572;14.202;2024-01-15T05:57:25;7.67;;;4.53;;
3971;SDS011;2000;47.572;14.202;2024-01-15T05:59:52;7.57;;;4.30;;
3971;SDS011;2000;47.572;14.202;2024-01-15T06:02:20;18.77;;;5.90;;
3971;SDS011;2000;47.572;14.202;2024-01-15T06:04:47;10.37;;;5.83;;
3971;SDS011;2000;47.572;14.202;2024-01-15T06:07:14;16.67;;;6.43;;
3971;SDS011;2000;47.572;14.202;2024-01-15T06:09:41;19.90;;;6.37;;
3971;SDS011;2000;47.572;14.202;2024-01-15T06:12:08;11.93;;;6.10;;
3971;SDS011;2000;47.572;14.202;2024-01-15T06:14:36;9.90;;;5.17;;
3971;SDS011;2000;47.572;14.202;2024-01-15T06:17:03;11.67;;;6.20;;
3971;SDS011;2000;47.572;14.202;2024-01-15T06:19:30;13.63;;;6.30;;
3971;SDS011;2000;47.572;14.202;2024-01-15T06:21:57;15.97;;;6.23;;
3971;SDS011;2000;47.572;14.202;2024-01-15T06:24:24;13.33;;;5.83;;
3971;SDS011;2000;47.572;14.202;2024-01-15T06:26:51;23.50;;;6.50;;
3971;SDS011;2000;47.572;14.202;2024-01-15T06:29:18;21.73;;;10.90;;
3971;SDS011;2000;47.572;14.202;2024-01-15T06:31:45;37.83;;;15.23;;
3971;SDS011;2000;47.572;14.202;2024-01-15T06:34:13;8.90;;;4.17;;
3971;SDS011;2000;47.572;14.202;2024-01-15T06:36:41;17.17;;;7.87;;
3971;SDS011;2000;47.572;14.202;2024-01-15T06:39:08;15.90;;;7.43;;
3971;SDS011;2000;47.572;14.202;2024-01-15T06:41:36;14.50;;;7.30;;
3971;SDS011;2000;47.572;14.202;2024-01-15T06:44:10;13.60;;;7.03;;
3971;SDS011;2000;47.572;14.202;2024-01-15T06:46:44;7.10;;;4.50;;
3971;SDS011;2000;47.572;14.202;2024-01-15T06:49:11;6.20;;;3.97;;
3971;SDS011;2000;47.572;14.202;2024-01-15T06:51:39;9.03;;;4.87;;
3971;SDS011;2000;47.572;14.202;2024-01-15T06:54:06;4.50;;;2.53;;
3971;SDS011;2000;47.572;14.202;2024-01-15T06:56:33;6.13;;;2.73;;
3971;SDS011;2000;47.572;14.202;2024-01-15T06:59:00;5.83;;;3.83;;
3971;SDS011;2000;47.572;14.202;2024-01-15T07:01:27;5.17;;;3.17;;
3971;SDS011;2000;47.572;14.202;2024-01-15T07:03:55;3.93;;;2.70;;
3971;SDS011;2000;47.572;14.202;2024-01-15T07:06:22;9.63;;;3.57;;
3971;SDS011;2000;47.572;14.202;2024-01-15T07:08:50;7.73;;;3.30;;
3971;SDS011;2000;47.572;14.202;2024-01-15T07:11:17;5.60;;;2.87;;
3971;SDS011;2000;47.572;14.202;2024-01-15T07:13:43;11.90;;;3.40;;
3971;SDS011;2000;47.572;14.202;2024-01-15T07:16:10;4.53;;;3.03;;
3971;SDS011;2000;47.572;14.202;2024-01-15T07:18:37;5.60;;;2.90;;
3971;SDS011;2000;47.572;14.202;2024-01-15T07:21:05;6.10;;;3.70;;
3971;SDS011;2000;47.572;14.202;2024-01-15T07:23:32;11.10;;;3.50;;
3971;SDS011;2000;47.572;14.202;2024-01-15T07:25:59;5.00;;;2.23;;
3971;SDS011;2000;47.572;14.202;2024-01-15T07:28:28;8.43;;;3.90;;
3971;SDS011;2000;47.572;14.202;2024-01-15T07:30:55;11.40;;;4.53;;
3971;SDS011;2000;47.572;14.202;2024-01-15T07:33:23;7.00;;;3.67;;
3971;SDS011;2000;47.572;14.202;2024-01-15T07:35:50;4.43;;;2.80;;
3971;SDS011;2000;47.572;14.202;2024-01-15T07:38:17;8.33;;;3.57;;
3971;SDS011;2000;47.572;14.202;2024-01-15T07:40:44;7.97;;;3.40;;
3971;SDS011;2000;47.572;14.202;2024-01-15T07:43:11;6.60;;;4.37;;
3971;SDS011;2000;47.572;14.202;2024-01-15T07:45:38;4.30;;;2.97;;
3971;SDS011;2000;47.572;14.202;2024-01-15T07:48:08;21.43;;;7.87;;
3971;SDS011;2000;47.572;14.202;2024-01-15T07:50:36;12.50;;;6.70;;
3971;SDS011;2000;47.572;14.202;2024-01-15T07:53:03;13.63;;;6.70;;
3971;SDS011;2000;47.572;14.202;2024-01-15T07:55:30;10.27;;;7.33;;
3971;SDS011;2000;47.572;14.202;2024-01-15T07:57:58;14.80;;;7.73;;
3971;SDS011;2000;47.572;14.202;2024-01-15T08:00:40;22.80;;;7.67;;
3971;SDS011;2000;47.572;14.202;2024-01-15T08:03:07;14.03;;;7.33;;
3971;SDS011;2000;47.572;14.202;2024-01-15T08:05:34;13.97;;;5.93;;
3971;SDS011;2000;47.572;14.202;2024-01-15T08:08:02;14.90;;;7.43;;
3971;SDS011;2000;47.572;14.202;2024-01-15T08:10:29;15.40;;;7.23;;
3971;SDS011;2000;47.572;14.202;2024-01-15T08:12:56;12.73;;;7.10;;
3971;SDS011;2000;47.572;14.202;2024-01-15T08:15:23;14.73;;;7.80;;
3971;SDS011;2000;47.572;14.202;2024-01-15T08:17:55;27.13;;;10.17;;
3971;SDS011;2000;47.572;14.202;2024-01-15T08:20:22;21.13;;;10.10;;
3971;SDS011;2000;47.572;14.202;2024-01-15T08:22:50;22.27;;;9.97;;
3971;SDS011;2000;47.572;14.202;2024-01-15T08:25:17;22.47;;;9.80;;
3971;SDS011;2000;47.572;14.202;2024-01-15T08:27:44;19.73;;;10.80;;
3971;SDS011;2000;47.572;14.202;2024-01-15T08:30:11;19.87;;;9.87;;
3971;SDS011;2000;47.572;14.202;2024-01-15T08:32:38;19.37;;;9.67;;
3971;SDS011;2000;47.572;14.202;2024-01-15T08:35:09;12.53;;;7.50;;
3971;SDS011;2000;47.572;14.202;2024-01-15T08:37:37;31.90;;;13.73;;
3971;SDS011;2000;47.572;14.202;2024-01-15T08:40:05;28.93;;;10.73;;
3971;SDS011;2000;47.572;14.202;2024-01-15T08:42:32;17.77;;;7.03;;
3971;SDS011;2000;47.572;14.202;2024-01-15T08:44:59;13.10;;;6.23;;
3971;SDS011;2000;47.572;14.202;2024-01-15T08:47:26;16.93;;;5.30;;
3971;SDS011;2000;47.572;14.202;2024-01-15T08:49:54;10.40;;;5.40;;
3971;SDS011;2000;47.572;14.202;2024-01-15T08:52:21;7.60;;;5.67;;
3971;SDS011;2000;47.572;14.202;2024-01-15T08:54:48;13.50;;;5.43;;
3971;SDS011;2000;47.572;14.202;2024-01-15T08:57:15;7.67;;;4.70;;
3971;SDS011;2000;47.572;14.202;2024-01-15T08:59:42;3.40;;;1.67;;
3971;SDS011;2000;47.572;14.202;2024-01-15T09:02:09;4.17;;;2.27;;
3971;SDS011;2000;47.572;14.202;2024-01-15T09:04:36;3.03;;;2.17;;
3971;SDS011;2000;47.572;14.202;2024-01-15T09:07:03;3.43;;;1.63;;
3971;SDS011;2000;47.572;14.202;2024-01-15T09:09:30;2.23;;;1.40;;
3971;SDS011;2000;47.572;14.202;2024-01-15T09:11:57;3.40;;;2.27;;
3971;SDS011;2000;47.572;14.202;2024-01-15T09:14:24;1.63;;;1.17;;
3971;SDS011;2000;47.572;14.202;2024-01-15T09:17:03;2.90;;;1.43;;
3971;SDS011;2000;47.572;14.202;2024-01-15T09:19:31;2.40;;;1.50;;
3971;SDS011;2000;47.572;14.202;2024-01-15T09:21:59;2.00;;;1.87;;
3971;SDS011;2000;47.572;14.202;2024-01-15T09:24:26;3.03;;;1.40;;
3971;SDS011;2000;47.572;14.202;2024-01-15T09:26:55;2.90;;;1.40;;
3971;SDS011;2000;47.572;14.202;2024-01-15T09:29:22;1.73;;;1.60;;
3971;SDS011;2000;47.572;14.202;2024-01-15T09:31:51;4.10;;;1.83;;
3971;SDS011;2000;47.572;14.202;2024-01-15T09:34:18;2.73;;;1.93;;
3971;SDS011;2000;47.572;14.202;2024-01-15T09:36:46;3.70;;;1.70;;
3971;SDS011;2000;47.572;14.202;2024-01-15T09:39:14;2.33;;;1.37;;
3971;SDS011;2000;47.572;14.202;2024-01-15T09:41:42;1.33;;;1.33;;
3971;SDS011;2000;47.572;14.202;2024-01-15T09:44:10;3.07;;;1.80;;
3971;SDS011;2000;47.572;14.202;2024-01-15T09:46:37;5.43;;;1.60;;
3971;SDS011;2000;47.572;14.202;2024-01-15T09:49:04;3.50;;;2.10;;
3971;SDS011;2000;47.572;14.202;2024-01-15T09:51:32;1.50;;;1.30;;
3971;SDS011;2000;47.572;14.202;2024-01-15T09:53:59;1.73;;;1.23;;
3971;SDS011;2000;47.572;14.202;2024-01-15T09:56:26;2.37;;;1.20;;
3971;SDS011;2000;47.572;14.202;2024-01-15T09:58:54;3.60;;;1.17;;
3971;SDS011;2000;47.572;14.202;2024-01-15T10:01:21;2.43;;;1.03;;
3971;SDS011;2000;47.572;14.202;2024-01-15T10:03:49;2.93;;;1.70;;
3971;SDS011;2000;47.572;14.202;2024-01-15T10:06:17;2.40;;;1.57;;
3971;SDS011;2000;47.572;14.202;2024-01-15T10:08:51;5.10;;;1.37;;
3971;SDS011;2000;47.572;14.202;2024-01-15T10:11:19;1.53;;;1.37;;
3971;SDS011;2000;47.572;14.202;2024-01-15T10:13:46;2.43;;;1.30;;
3971;SDS011;2000;47.572;14.202;2024-01-15T10:16:16;3.60;;;1.57;;
3971;SDS011;2000;47.572;14.202;2024-01-15T10:18:43;8.40;;;1.47;;
3971;SDS011;2000;47.572;14.202;2024-01-15T10:21:10;1.77;;;1.20;;
3971;SDS011;2000;47.572;14.202;2024-01-15T10:23:38;3.20;;;1.50;;
3971;SDS011;2000;47.572;14.202;2024-01-15T10:26:05;3.97;;;1.53;;
3971;SDS011;2000;47.572;14.202;2024-01-15T10:28:32;1.90;;;1.23;;
3971;SDS011;2000;47.572;14.202;2024-01-15T10:30:59;1.90;;;1.03;;
3971;SDS011;2000;47.572;14.202;2024-01-15T10:33:27;1.40;;;1.30;;
3971;SDS011;2000;47.572;14.202;2024-01-15T10:35:55;2.27;;;1.10;;
3971;SDS011;2000;47.572;14.202;2024-01-15T10:38:26;1.77;;;0.97;;
3971;SDS011;2000;47.572;14.202;2024-01-15T10:40:53;6.13;;;1.23;;
3971;SDS011;2000;47.572;14.202;2024-01-15T10:43:21;4.90;;;1.03;;
3971;SDS011;2000;47.572;14.202;2024-01-15T10:45:53;2.57;;;1.50;;
3971;SDS011;2000;47.572;14.202;2024-01-15T10:48:21;2.97;;;1.10;;
3971;SDS011;2000;47.572;14.202;2024-01-15T10:50:48;1.90;;;1.30;;
3971;SDS011;2000;47.572;14.202;2024-01-15T10:53:15;2.70;;;1.17;;
3971;SDS011;2000;47.572;14.202;2024-01-15T10:55:43;1.10;;;0.73;;
3971;SDS011;2000;47.572;14.202;2024-01-15T10:58:11;1.40;;;1.30;;
3971;SDS011;2000;47.572;14.202;2024-01-15T11:00:39;7.63;;;2.27;;
3971;SDS011;2000;47.572;14.202;2024-01-15T11:03:06;5.93;;;1.30;;
3971;SDS011;2000;47.572;14.202;2024-01-15T11:05:37;2.10;;;1.10;;
3971;SDS011;2000;47.572;14.202;2024-01-15T11:08:10;1.87;;;1.33;;
3971;SDS011;2000;47.572;14.202;2024-01-15T11:10:41;4.80;;;1.03;;
3971;SDS011;2000;47.572;14.202;2024-01-15T11:13:39;1.90;;;0.70;;
3971;SDS011;2000;47.572;14.202;2024-01-15T11:16:04;1.47;;;0.63;;
3971;SDS011;2000;47.572;14.202;2024-01-15T11:18:37;1.07;;;0.53;;
3971;SDS011;2000;47.572;14.202;2024-01-15T11:23:51;0.60;;;0.60;;
3971;SDS011;2000;47.572;14.202;2024-01-15T11:26:36;1.07;;;1.00;;
3971;SDS011;2000;47.572;14.202;2024-01-15T11:29:29;3.97;;;0.90;;
3971;SDS011;2000;47.572;14.202;2024-01-15T11:32:07;1.90;;;0.70;;
3971;SDS011;2000;47.572;14.202;2024-01-15T11:34:51;2.70;;;0.50;;
3971;SDS011;2000;47.572;14.202;2024-01-15T11:37:20;2.37;;;0.87;;
3971;SDS011;2000;47.572;14.202;2024-01-15T11:39:47;1.37;;;1.10;;
3971;SDS011;2000;47.572;14.202;2024-01-15T11:42:15;1.00;;;0.70;;
3971;SDS011;2000;47.572;14.202;2024-01-15T11:44:42;1.03;;;0.70;;
3971;SDS011;2000;47.572;14.202;2024-01-15T11:47:10;1.50;;;1.20;;
3971;SDS011;2000;47.572;14.202;2024-01-15T11:50:16;1.20;;;0.80;;
3971;SDS011;2000;47.572;14.202;2024-01-15T11:52:38;1.00;;;0.90;;
3971;SDS011;2000;47.572;14.202;2024-01-15T11:57:42;2.60;;;0.50;;
3971;SDS011;2000;47.572;14.202;2024-01-15T12:00:13;1.37;;;1.27;;
3971;SDS011;2000;47.572;14.202;2024-01-15T12:02:42;0.70;;;0.40;;
3971;SDS011;2000;47.572;14.202;2024-01-15T12:05:10;0.50;;;0.40;;
3971;SDS011;2000;47.572;14.202;2024-01-15T12:07:45;0.50;;;0.50;;
3971;SDS011;2000;47.572;14.202;2024-01-15T12:10:17;7.03;;;1.27;;
3971;SDS011;2000;47.572;14.202;2024-01-15T12:15:32;1.47;;;0.70;;
3971;SDS011;2000;47.572;14.202;2024-01-15T12:18:00;0.70;;;0.43;;
3971;SDS011;2000;47.572;14.202;2024-01-15T12:20:31;0.50;;;0.40;;
3971;SDS011;2000;47.572;14.202;2024-01-15T12:23:00;2.17;;;0.63;;
3971;SDS011;2000;47.572;14.202;2024-01-15T12:25:34;0.50;;;0.40;;
3971;SDS011;2000;47.572;14.202;2024-01-15T12:28:01;1.80;;;1.03;;
3971;SDS011;2000;47.572;14.202;2024-01-15T12:30:29;0.60;;;0.20;;
3971;SDS011;2000;47.572;14.202;2024-01-15T12:33:00;0.87;;;0.50;;
3971;SDS011;2000;47.572;14.202;2024-01-15T12:35:30;0.40;;;0.40;;
3971;SDS011;2000;47.572;14.202;2024-01-15T12:37:59;0.40;;;0.33;;
3971;SDS011;2000;47.572;14.202;2024-01-15T12:40:27;0.73;;;0.70;;
3971;SDS011;2000;47.572;14.202;2024-01-15T12:42:54;0.63;;;0.33;;
3971;SDS011;2000;47.572;14.202;2024-01-15T12:45:21;0.53;;;0.30;;
3971;SDS011;2000;47.572;14.202;2024-01-15T12:47:48;1.00;;;0.60;;
3971;SDS011;2000;47.572;14.202;2024-01-15T12:50:17;1.17;;;0.50;;
3971;SDS011;2000;47.572;14.202;2024-01-15T12:52:47;0.87;;;0.60;;
3971;SDS011;2000;47.572;14.202;2024-01-15T12:55:14;5.60;;;0.40;;
3971;SDS011;2000;47.572;14.202;2024-01-15T12:57:42;0.90;;;0.60;;
3971;SDS011;2000;47.572;14.202;2024-01-15T13:00:09;1.10;;;0.80;;
3971;SDS011;2000;47.572;14.202;2024-01-15T13:02:41;0.80;;;0.63;;
3971;SDS011;2000;47.572;14.202;2024-01-15T13:05:10;0.60;;;0.40;;
3971;SDS011;2000;47.572;14.202;2024-01-15T13:07:41;1.23;;;0.70;;
3971;SDS011;2000;47.572;14.202;2024-01-15T13:10:10;0.40;;;0.40;;
3971;SDS011;2000;47.572;14.202;2024-01-15T13:12:37;0.67;;;0.53;;
3971;SDS011;2000;47.572;14.202;2024-01-15T13:15:05;0.50;;;0.33;;
3971;SDS011;2000;47.572;14.202;2024-01-15T13:17:34;1.10;;;1.00;;
3971;SDS011;2000;47.572;14.202;2024-01-15T13:20:01;1.47;;;0.70;;
3971;SDS011;2000;47.572;14.202;2024-01-15T13:22:30;0.67;;;0.40;;
3971;SDS011;2000;47.572;14.202;2024-01-15T13:24:59;1.20;;;0.50;;
3971;SDS011;2000;47.572;14.202;2024-01-15T13:27:27;0.77;;;0.77;;
3971;SDS011;2000;47.572;14.202;2024-01-15T13:29:55;8.27;;;2.60;;
3971;SDS011;2000;47.572;14.202;2024-01-15T13:32:24;2.03;;;1.00;;
3971;SDS011;2000;47.572;14.202;2024-01-15T13:34:55;2.27;;;0.90;;
3971;SDS011;2000;47.572;14.202;2024-01-15T13:37:23;1.90;;;0.60;;
3971;SDS011;2000;47.572;14.202;2024-01-15T13:39:54;2.13;;;1.03;;
3971;SDS011;2000;47.572;14.202;2024-01-15T13:42:21;0.97;;;0.70;;
3971;SDS011;2000;47.572;14.202;2024-01-15T13:44:49;1.17;;;0.83;;
3971;SDS011;2000;47.572;14.202;2024-01-15T13:47:16;1.13;;;0.40;;
3971;SDS011;2000;47.572;14.202;2024-01-15T13:49:43;0.60;;;0.60;;
3971;SDS011;2000;47.572;14.202;2024-01-15T13:52:10;0.50;;;0.47;;
3971;SDS011;2000;47.572;14.202;2024-01-15T13:54:39;1.27;;;0.70;;
3971;SDS011;2000;47.572;14.202;2024-01-15T13:57:16;1.00;;;0.77;;
3971;SDS011;2000;47.572;14.202;2024-01-15T13:59:44;0.70;;;0.70;;
3971;SDS011;2000;47.572;14.202;2024-01-15T14:02:11;0.50;;;0.50;;
3971;SDS011;2000;47.572;14.202;2024-01-15T14:04:42;0.77;;;0.40;;
3971;SDS011;2000;47.572;14.202;2024-01-15T14:07:09;1.00;;;0.80;;
3971;SDS011;2000;47.572;14.202;2024-01-15T14:09:36;1.93;;;1.03;;
3971;SDS011;2000;47.572;14.202;2024-01-15T14:12:04;2.50;;;0.97;;
3971;SDS011;2000;47.572;14.202;2024-01-15T14:14:33;0.90;;;0.67;;
3971;SDS011;2000;47.572;14.202;2024-01-15T14:17:00;1.00;;;0.90;;
3971;SDS011;2000;47.572;14.202;2024-01-15T14:19:27;0.70;;;0.40;;
3971;SDS011;2000;47.572;14.202;2024-01-15T14:21:55;1.03;;;0.60;;
3971;SDS011;2000;47.572;14.202;2024-01-15T14:24:22;0.83;;;0.60;;
3971;SDS011;2000;47.572;14.202;2024-01-15T14:26:49;0.43;;;0.43;;
3971;SDS011;2000;47.572;14.202;2024-01-15T14:29:16;2.40;;;1.20;;
3971;SDS011;2000;47.572;14.202;2024-01-15T14:31:45;2.83;;;1.30;;
3971;SDS011;2000;47.572;14.202;2024-01-15T14:34:13;2.10;;;1.07;;
3971;SDS011;2000;47.572;14.202;2024-01-15T14:36:40;0.77;;;0.77;;
3971;SDS011;2000;47.572;14.202;2024-01-15T14:39:08;0.40;;;0.33;;
3971;SDS011;2000;47.572;14.202;2024-01-15T14:41:36;10.00;;;4.23;;
3971;SDS011;2000;47.572;14.202;2024-01-15T14:44:03;2.13;;;2.00;;
3971;SDS011;2000;47.572;14.202;2024-01-15T14:46:30;0.90;;;0.90;;
3971;SDS011;2000;47.572;14.202;2024-01-15T14:48:57;0.67;;;0.50;;
3971;SDS011;2000;47.572;14.202;2024-01-15T14:51:25;0.73;;;0.40;;
3971;SDS011;2000;47.572;14.202;2024-01-15T14:53:52;0.43;;;0.40;;
3971;SDS011;2000;47.572;14.202;2024-01-15T14:56:20;0.53;;;0.53;;
3971;SDS011;2000;47.572;14.202;2024-01-15T14:58:47;0.77;;;0.50;;
3971;SDS011;2000;47.572;14.202;2024-01-15T15:01:14;0.80;;;0.63;;
3971;SDS011;2000;47.572;14.202;2024-01-15T15:03:42;0.70;;;0.70;;
3971;SDS011;2000;47.572;14.202;2024-01-15T15:06:11;1.67;;;0.80;;
3971;SDS011;2000;47.572;14.202;2024-01-15T15:08:39;0.70;;;0.70;;